Time;durP1;ratioP1;P1;durP2;ratioP2;P2;SDS_P1;SDS_P2;PMS_P1;PMS_P2;Temp;Humidity;BMP_temperature;BMP_pressure;BME280_temperature;BME280_humidity;BME280_pressure;Samples;Min_cycle;Max_cycle;Signal;HPM_P1;HPM_P2
2021/08/06 00:02:18;;;;;;;3.43;2.63;;;20.10;99.90;;;;;;5044784;28;20258;-48
2021/08/06 00:04:45;;;;;;;2.40;2.20;;;20.10;1.00;;;;;;5036714;28;20207;-49
2021/08/06 00:07:12;;;;;;;6.43;2.87;;;20.20;1.00;;;;;;5045436;28;20246;-48
2021/08/06 00:09:40;;;;;;;3.17;2.37;;;20.30;12.20;;;;;;5045262;28;20524;-48
2021/08/06 00:12:09;;;;;;;3.47;2.30;;;20.20;1.00;;;;;;5046303;28;20571;-48
2021/08/06 00:14:36;;;;;;;5.00;2.60;;;20.10;99.90;;;;;;5046214;28;20300;-48
2021/08/06 00:17:03;;;;;;;6.70;2.70;;;20.10;99.90;;;;;;5045237;28;20247;-48
2021/08/06 00:19:30;;;;;;;3.47;2.10;;;20.10;6.00;;;;;;5046446;28;20208;-48
2021/08/06 00:21:57;;;;;;;2.80;2.37;;;20.20;1.00;;;;;;5045573;28;20207;-49
2021/08/06 00:24:24;;;;;;;3.70;2.20;;;20.20;99.90;;;;;;5045945;28;20719;-48
2021/08/06 00:26:51;;;;;;;3.40;2.37;;;20.20;1.00;;;;;;5045603;28;20249;-48
2021/08/06 00:29:18;;;;;;;4.63;2.30;;;20.20;1.00;;;;;;5046430;28;20299;-48
2021/08/06 00:31:45;;;;;;;2.93;2.40;;;20.30;1.00;;;;;;5045704;28;20346;-48
2021/08/06 00:34:12;;;;;;;2.43;2.10;;;20.30;1.00;;;;;;5046419;28;20297;-48
2021/08/06 00:36:39;;;;;;;4.93;2.43;;;20.30;1.00;;;;;;5046237;28;20301;-48
2021/08/06 00:39:05;;;;;;;2.37;2.13;;;20.20;99.90;;;;;;5045348;28;20337;-48
2021/08/06 00:41:35;;;;;;;4.43;2.23;;;20.20;1.00;;;;;;5045438;28;20299;-48
2021/08/06 00:44:03;;;;;;;2.87;2.47;;;20.20;99.90;;;;;;5046597;28;20615;-48
2021/08/06 00:46:30;;;;;;;3.83;2.30;;;20.20;1.00;;;;;;5046601;28;20718;-49
2021/08/06 00:48:57;;;;;;;3.47;2.43;;;20.30;1.00;;;;;;5045392;28;20203;-48
2021/08/06 00:51:24;;;;;;;4.43;3.10;;;20.20;1.00;;;;;;5046254;28;20610;-48
2021/08/06 00:53:51;;;;;;;3.23;2.10;;;20.20;1.00;;;;;;5045159;28;20235;-48
2021/08/06 00:56:18;;;;;;;2.47;2.10;;;20.30;1.00;;;;;;5045801;28;20285;-48
2021/08/06 00:58:45;;;;;;;3.00;1.83;;;20.30;1.00;;;;;;5046405;28;20339;-48
2021/08/06 01:01:11;;;;;;;3.10;2.00;;;20.30;1.00;;;;;;5044621;28;20243;-48
2021/08/06 01:03:57;;;;;;;2.93;2.57;;;20.10;1.00;;;;;;5044935;28;20215;-49
2021/08/06 01:06:45;;;;;;;2.97;2.20;;;20.00;99.90;;;;;;5045092;28;20274;-48
2021/08/06 01:09:37;;;;;;;5.10;2.23;;;20.00;99.90;;;;;;5045885;28;20587;-48
2021/08/06 01:12:09;;;;;;;7.50;2.23;;;20.00;1.00;;;;;;5042558;28;20218;-48
2021/08/06 01:14:39;;;;;;;2.67;2.03;;;19.90;99.90;;;;;;5045697;28;20250;-48
2021/08/06 01:17:07;;;;;;;2.33;2.00;;;19.90;99.90;;;;;;5045575;28;20776;-48
2021/08/06 01:20:03;;;;;;;2.27;2.07;;;20.00;1.00;;;;;;5046098;28;20287;-48
2021/08/06 01:22:41;;;;;;;3.13;2.10;;;20.00;99.90;;;;;;5046451;28;20304;-48
2021/08/06 01:25:15;;;;;;;2.23;2.03;;;20.00;99.90;;;;;;5044990;28;20290;-47
2021/08/06 01:27:51;;;;;;;3.63;1.97;;;19.90;1.00;;;;;;5045709;28;20246;-48
2021/08/06 01:30:18;;;;;;;2.33;1.60;;;19.90;1.00;;;;;;5046172;28;20655;-48
2021/08/06 01:32:45;;;;;;;3.67;2.20;;;19.90;1.00;;;;;;5045392;28;20686;-48
2021/08/06 01:35:12;;;;;;;2.53;1.60;;;19.90;1.00;;;;;;5044512;28;20819;-47
2021/08/06 01:37:38;;;;;;;2.10;1.90;;;19.80;62.90;;;;;;5045334;28;20214;-48
2021/08/06 01:40:08;;;;;;;2.70;2.00;;;19.80;1.00;;;;;;5044721;28;20574;-48
2021/08/06 01:42:38;;;;;;;2.93;2.03;;;19.90;99.90;;;;;;5044805;28;20225;-48
2021/08/06 01:45:11;;;;;;;2.50;2.07;;;19.80;99.90;;;;;;5045408;28;20198;-48
2021/08/06 01:47:43;;;;;;;2.47;1.97;;;19.70;99.90;;;;;;5045773;28;20314;-47
2021/08/06 01:50:14;;;;;;;2.00;1.80;;;19.70;99.90;;;;;;5045297;28;20206;-48
2021/08/06 01:52:54;;;;;;;5.83;2.07;;;19.80;99.90;;;;;;5048742;28;20729;-48
2021/08/06 01:55:21;;;;;;;2.13;1.90;;;19.70;99.90;;;;;;5049235;28;20290;-48
2021/08/06 01:57:50;;;;;;;2.57;2.30;;;19.70;1.00;;;;;;5049154;28;20238;-49
2021/08/06 02:00:17;;;;;;;3.10;1.60;;;19.60;1.00;;;;;;5048628;28;20472;-48
2021/08/06 02:02:45;;;;;;;2.77;1.80;;;19.60;1.00;;;;;;5047727;28;20313;-48
2021/08/06 02:05:12;;;;;;;2.80;2.13;;;19.60;1.00;;;;;;5047353;28;20236;-48
2021/08/06 02:07:41;;;;;;;2.17;1.70;;;19.50;1.00;;;;;;5048028;28;20627;-48
2021/08/06 02:10:08;;;;;;;2.00;1.80;;;19.50;1.00;;;;;;5048438;28;20211;-48
2021/08/06 02:12:35;;;;;;;2.10;1.77;;;19.40;1.00;;;;;;5049244;28;20205;-48
2021/08/06 02:15:03;;;;;;;2.60;1.80;;;19.50;1.00;;;;;;5047691;28;20287;-47
2021/08/06 02:17:31;;;;;;;2.03;1.40;;;19.40;1.00;;;;;;5048300;28;20237;-47
2021/08/06 02:19:58;;;;;;;2.37;1.80;;;19.40;1.00;;;;;;5047322;28;20632;-48
2021/08/06 02:22:26;;;;;;;2.73;1.87;;;19.40;99.90;;;;;;5048768;28;20312;-47
2021/08/06 02:24:54;;;;;;;3.03;1.77;;;19.40;99.90;;;;;;5048475;28;20241;-48
2021/08/06 02:27:22;;;;;;;1.50;1.40;;;19.30;99.90;;;;;;5048494;28;20283;-48
2021/08/06 02:29:50;;;;;;;1.70;1.60;;;19.10;99.90;;;;;;5047731;28;20664;-48
2021/08/06 02:32:17;;;;;;;1.93;1.53;;;19.20;99.90;;;;;;5048569;28;20318;-48
2021/08/06 02:34:44;;;;;;;2.67;1.63;;;19.20;99.90;;;;;;5047094;28;20282;-48
2021/08/06 02:37:11;;;;;;;1.73;1.40;;;19.20;99.90;;;;;;5049196;28;20246;-48
2021/08/06 02:39:38;;;;;;;4.10;1.37;;;19.10;99.90;;;;;;5046487;28;20207;-48
2021/08/06 02:42:05;;;;;;;3.43;1.80;;;19.20;99.90;;;;;;5048422;28;20348;-48
2021/08/06 02:44:36;;;;;;;1.73;1.40;;;19.10;99.90;;;;;;5047723;28;20226;-48
2021/08/06 02:47:05;;;;;;;2.70;1.83;;;19.10;99.90;;;;;;5048757;28;20294;-48
2021/08/06 02:49:33;;;;;;;2.43;1.70;;;19.00;99.90;;;;;;5046936;28;20205;-48
2021/08/06 02:52:06;;;;;;;2.33;1.60;;;18.90;99.90;;;;;;5055677;28;20754;-48
2021/08/06 02:54:34;;;;;;;2.30;1.70;;;18.70;99.90;;;;;;5046708;28;20233;-48
2021/08/06 02:57:01;;;;;;;1.73;1.63;;;18.70;99.90;;;;;;5039391;28;20244;-48
2021/08/06 02:59:28;;;;;;;2.87;1.83;;;18.70;99.90;;;;;;5047393;28;20246;-47
2021/08/06 03:01:54;;;;;;;2.70;1.90;;;18.50;99.90;;;;;;5047096;28;21103;-48
2021/08/06 03:04:21;;;;;;;1.43;1.33;;;18.30;99.90;;;;;;5046569;28;20303;-48
2021/08/06 03:06:48;;;;;;;1.60;1.50;;;18.40;99.90;;;;;;5046646;28;20271;-48
2021/08/06 03:09:15;;;;;;;1.97;1.47;;;18.50;99.90;;;;;;5047934;28;20232;-48
2021/08/06 03:11:42;;;;;;;2.47;1.40;;;18.50;99.90;;;;;;5047489;28;20244;-48
2021/08/06 03:14:09;;;;;;;3.57;2.37;;;18.60;99.90;;;;;;5047024;28;20724;-47
2021/08/06 03:16:35;;;;;;;2.10;1.37;;;18.50;99.90;;;;;;5047109;28;20286;-47
2021/08/06 03:19:02;;;;;;;1.80;1.50;;;18.50;99.90;;;;;;5047316;28;20640;-47
2021/08/06 03:21:29;;;;;;;1.97;1.70;;;18.50;99.90;;;;;;5046932;28;20200;-48
2021/08/06 03:23:56;;;;;;;2.03;1.60;;;18.40;99.90;;;;;;5046967;28;20551;-48
2021/08/06 03:26:23;;;;;;;2.23;1.50;;;18.40;99.90;;;;;;5047607;28;20237;-48
2021/08/06 03:28:49;;;;;;;1.97;1.67;;;18.50;99.90;;;;;;5047263;28;20221;-47
2021/08/06 03:31:16;;;;;;;1.50;1.40;;;18.50;99.90;;;;;;5046528;28;20262;-48
2021/08/06 03:33:43;;;;;;;2.43;1.70;;;18.60;99.90;;;;;;5047323;28;20633;-48
2021/08/06 03:36:12;;;;;;;1.60;1.50;;;18.50;99.90;;;;;;5046627;28;20661;-47
2021/08/06 03:38:39;;;;;;;3.83;1.50;;;18.30;99.90;;;;;;5047577;28;20288;-48
2021/08/06 03:41:05;;;;;;;2.57;1.60;;;18.30;99.90;;;;;;5046447;28;20245;-47
2021/08/06 03:43:32;;;;;;;3.27;1.60;;;18.40;99.90;;;;;;5046790;28;20328;-48
2021/08/06 03:45:59;;;;;;;3.00;1.70;;;18.50;99.90;;;;;;5046839;28;20255;-48
2021/08/06 03:48:26;;;;;;;2.13;1.20;;;18.50;99.90;;;;;;5046992;28;20317;-48
2021/08/06 03:50:53;;;;;;;3.20;1.87;;;18.40;99.90;;;;;;5045677;28;20295;-48
2021/08/06 03:53:20;;;;;;;1.77;1.63;;;18.40;99.90;;;;;;5046258;28;20239;-48
2021/08/06 03:55:46;;;;;;;1.50;1.40;;;18.50;99.90;;;;;;5045970;28;20296;-48
2021/08/06 03:58:13;;;;;;;3.10;1.63;;;18.50;99.90;;;;;;5047412;28;20297;-47
2021/08/06 04:00:41;;;;;;;2.80;1.40;;;18.50;99.90;;;;;;5046531;28;20337;-48
2021/08/06 04:03:08;;;;;;;3.33;1.53;;;18.50;99.90;;;;;;5045946;28;20449;-48
2021/08/06 04:05:35;;;;;;;2.03;1.70;;;18.50;99.90;;;;;;5045117;28;20208;-47
2021/08/06 04:08:07;;;;;;;1.63;1.43;;;18.40;99.90;;;;;;5046356;28;20302;-49
2021/08/06 04:10:35;;;;;;;3.17;1.40;;;18.50;99.90;;;;;;5045786;28;20727;-47
2021/08/06 04:13:02;;;;;;;1.70;1.60;;;18.30;99.90;;;;;;5046843;28;20262;-48
2021/08/06 04:15:28;;;;;;;1.33;1.20;;;18.40;99.90;;;;;;5045634;28;20283;-47
2021/08/06 04:17:56;;;;;;;1.77;1.17;;;18.50;99.90;;;;;;5046244;28;20243;-48
2021/08/06 04:20:23;;;;;;;2.33;1.07;;;18.50;99.90;;;;;;5045143;28;20196;-47
2021/08/06 04:22:49;;;;;;;1.73;1.10;;;18.50;99.90;;;;;;5046512;28;20242;-48
2021/08/06 04:25:17;;;;;;;2.20;1.30;;;18.50;99.90;;;;;;5046011;28;20893;-48
2021/08/06 04:27:44;;;;;;;2.10;1.40;;;18.40;99.90;;;;;;5046330;28;20345;-48
2021/08/06 04:30:12;;;;;;;2.03;1.10;;;18.50;99.90;;;;;;5045617;28;20257;-47
2021/08/06 04:32:39;;;;;;;1.77;1.13;;;18.40;99.90;;;;;;5046325;28;20744;-48
2021/08/06 04:35:06;;;;;;;2.53;1.40;;;18.30;99.90;;;;;;5045658;28;20715;-47
2021/08/06 04:37:33;;;;;;;1.13;1.00;;;18.20;99.90;;;;;;5046095;28;20257;-47
2021/08/06 04:40:00;;;;;;;2.13;1.17;;;18.10;99.90;;;;;;5045137;28;20333;-47
2021/08/06 04:42:27;;;;;;;1.03;1.00;;;18.20;99.90;;;;;;5060732;28;20290;-47
2021/08/06 04:44:54;;;;;;;1.70;1.37;;;18.20;99.90;;;;;;5045931;28;20758;-47
2021/08/06 04:47:20;;;;;;;1.97;1.47;;;18.30;99.90;;;;;;5045685;28;20239;-48
2021/08/06 04:49:47;;;;;;;1.67;1.20;;;18.30;99.90;;;;;;5044491;28;20242;-48
2021/08/06 04:52:14;;;;;;;1.30;1.20;;;18.10;99.90;;;;;;5046226;28;20236;-48
2021/08/06 04:54:40;;;;;;;2.37;1.40;;;18.20;99.90;;;;;;5044384;28;20255;-48
2021/08/06 04:57:07;;;;;;;1.13;1.03;;;18.10;99.90;;;;;;5046381;28;20324;-48
2021/08/06 04:59:34;;;;;;;2.57;1.37;;;18.00;99.90;;;;;;5045528;28;20255;-48
2021/08/06 05:02:01;;;;;;;2.47;1.30;;;17.80;99.90;;;;;;5043839;28;20250;-47
2021/08/06 05:04:28;;;;;;;1.77;1.40;;;17.90;99.90;;;;;;5044556;28;20547;-48
2021/08/06 05:06:54;;;;;;;2.03;1.40;;;17.90;99.90;;;;;;5044673;28;20209;-48
2021/08/06 05:09:21;;;;;;;1.20;1.10;;;17.90;99.90;;;;;;5045220;28;20242;-47
2021/08/06 05:11:48;;;;;;;2.80;1.77;;;17.90;99.90;;;;;;5045191;28;20290;-48
2021/08/06 05:14:15;;;;;;;1.97;1.63;;;17.90;99.90;;;;;;5045668;28;20749;-47
2021/08/06 05:16:42;;;;;;;1.70;1.60;;;17.80;99.90;;;;;;5045511;28;20246;-48
2021/08/06 05:19:08;;;;;;;2.57;1.43;;;18.00;99.90;;;;;;5045754;28;20715;-48
2021/08/06 05:21:35;;;;;;;1.50;1.40;;;17.90;99.90;;;;;;5045031;28;20289;-48
2021/08/06 05:24:02;;;;;;;1.63;1.53;;;17.90;99.90;;;;;;5044826;28;20330;-48
2021/08/06 05:26:29;;;;;;;1.83;1.63;;;17.90;99.90;;;;;;5046586;28;20647;-47
2021/08/06 05:28:55;;;;;;;1.77;1.67;;;17.90;99.90;;;;;;5050119;28;20254;-47
2021/08/06 05:31:22;;;;;;;1.80;1.70;;;17.80;99.90;;;;;;5048872;28;20246;-47
2021/08/06 05:33:49;;;;;;;1.93;1.67;;;17.80;99.90;;;;;;5049464;28;20203;-48
2021/08/06 05:36:16;;;;;;;2.67;1.80;;;17.90;99.90;;;;;;5048380;28;20295;-48
2021/08/06 05:38:43;;;;;;;2.40;2.00;;;18.00;99.90;;;;;;5049980;28;20212;-47
2021/08/06 05:41:10;;;;;;;1.63;1.50;;;17.90;99.90;;;;;;5048052;28;20251;-47
2021/08/06 05:43:36;;;;;;;2.43;1.90;;;17.90;99.90;;;;;;5049806;28;20298;-48
2021/08/06 05:46:03;;;;;;;2.03;1.83;;;18.00;99.90;;;;;;5048788;28;20332;-48
2021/08/06 05:48:30;;;;;;;2.00;1.80;;;18.00;99.90;;;;;;5048769;28;20251;-47
2021/08/06 05:50:57;;;;;;;3.07;2.33;;;17.90;99.90;;;;;;5047643;28;20243;-47
2021/08/06 05:53:24;;;;;;;2.37;2.17;;;18.00;99.90;;;;;;5048416;28;20328;-47
2021/08/06 05:55:51;;;;;;;2.37;2.00;;;18.10;99.90;;;;;;5047552;28;20263;-47
2021/08/06 05:58:17;;;;;;;2.70;2.30;;;18.00;99.90;;;;;;5049924;28;20740;-48
2021/08/06 06:00:44;;;;;;;3.23;2.63;;;18.00;99.90;;;;;;5043023;28;20209;-47
2021/08/06 06:03:14;;;;;;;2.50;2.30;;;18.10;99.90;;;;;;5048364;28;20574;-48
2021/08/06 06:05:41;;;;;;;6.97;3.10;;;18.10;99.90;;;;;;5046484;28;20349;-47
2021/08/06 06:08:07;;;;;;;2.53;2.30;;;18.00;99.90;;;;;;5048697;28;20288;-47
2021/08/06 06:10:34;;;;;;;2.50;2.30;;;17.90;99.90;;;;;;5048163;28;20242;-47
2021/08/06 06:13:01;;;;;;;3.30;3.00;;;18.00;99.90;;;;;;5048781;28;20599;-48
2021/08/06 06:15:28;;;;;;;5.00;3.30;;;17.90;99.90;;;;;;5047802;28;20215;-47
2021/08/06 06:17:56;;;;;;;3.57;3.27;;;18.00;99.90;;;;;;5048458;28;20220;-48
2021/08/06 06:20:23;;;;;;;3.53;3.20;;;17.90;99.90;;;;;;5047278;28;20203;-47
2021/08/06 06:22:51;;;;;;;3.70;3.30;;;18.00;99.90;;;;;;5040216;28;20279;-48
2021/08/06 06:25:18;;;;;;;5.43;3.93;;;18.20;99.90;;;;;;5048247;28;20225;-47
2021/08/06 06:27:55;;;;;;;5.10;3.27;;;18.30;99.90;;;;;;5048191;28;20216;-47
2021/08/06 06:30:25;;;;;;;4.60;3.47;;;18.30;99.90;;;;;;5048212;28;20200;-48
2021/08/06 06:32:52;;;;;;;5.33;3.97;;;18.30;99.90;;;;;;5047640;28;20368;-47
2021/08/06 06:35:20;;;;;;;5.07;4.00;;;18.30;99.90;;;;;;5047333;28;20296;-47
2021/08/06 06:37:48;;;;;;;4.00;3.50;;;18.40;99.90;;;;;;5047320;28;20850;-48
2021/08/06 06:40:16;;;;;;;4.80;3.60;;;18.40;99.90;;;;;;5047644;28;20208;-48
2021/08/06 06:42:44;;;;;;;4.80;3.63;;;18.30;99.90;;;;;;5047242;28;20259;-48
2021/08/06 06:45:12;;;;;;;4.77;3.10;;;18.40;99.90;;;;;;5048278;28;20254;-47
2021/08/06 06:47:41;;;;;;;3.80;3.23;;;18.30;99.90;;;;;;5047150;28;20243;-48
2021/08/06 06:50:11;;;;;;;3.97;3.00;;;18.30;99.90;;;;;;5047555;28;20669;-47
2021/08/06 06:52:38;;;;;;;5.03;3.70;;;18.50;99.90;;;;;;5047175;28;20545;-48
2021/08/06 06:55:06;;;;;;;4.83;3.50;;;18.50;99.90;;;;;;5047931;28;20590;-48
2021/08/06 06:57:41;;;;;;;6.47;3.63;;;18.60;99.90;;;;;;5047662;28;20232;-47
2021/08/06 07:00:08;;;;;;;2.87;2.57;;;18.50;99.90;;;;;;5048377;28;20261;-47
2021/08/06 07:02:35;;;;;;;3.93;3.53;;;18.30;99.90;;;;;;5046340;28;20239;-48
2021/08/06 07:05:03;;;;;;;6.07;3.60;;;18.30;99.90;;;;;;5045619;28;20281;-48
2021/08/06 07:07:29;;;;;;;4.77;3.93;;;18.10;99.90;;;;;;5047027;28;20283;-47
2021/08/06 07:09:56;;;;;;;6.00;4.07;;;18.20;99.90;;;;;;5047132;28;20703;-47
2021/08/06 07:12:23;;;;;;;4.40;3.67;;;18.20;99.90;;;;;;5047586;28;20283;-47
2021/08/06 07:14:50;;;;;;;5.60;3.70;;;18.30;99.90;;;;;;5038233;28;20288;-48
2021/08/06 07:17:17;;;;;;;5.43;4.30;;;18.10;99.90;;;;;;5046939;28;20239;-47
2021/08/06 07:19:44;;;;;;;4.13;3.40;;;18.10;99.90;;;;;;5046269;28;20205;-47
2021/08/06 07:22:11;;;;;;;3.67;3.30;;;18.30;99.90;;;;;;5047230;28;20666;-47
2021/08/06 07:24:38;;;;;;;5.53;3.90;;;18.50;99.90;;;;;;5046811;28;20308;-47
2021/08/06 07:27:04;;;;;;;8.13;4.23;;;18.50;99.90;;;;;;5046732;28;20284;-47
2021/08/06 07:29:31;;;;;;;4.23;3.90;;;18.60;99.90;;;;;;5047099;28;20261;-47
2021/08/06 07:31:58;;;;;;;4.33;3.40;;;18.50;99.90;;;;;;5046564;28;20252;-48
2021/08/06 07:34:25;;;;;;;3.97;3.30;;;18.50;99.90;;;;;;5046078;28;20310;-48
2021/08/06 07:36:52;;;;;;;5.30;3.10;;;18.40;99.90;;;;;;5047129;28;20209;-47
2021/08/06 07:39:18;;;;;;;5.00;2.93;;;18.30;99.90;;;;;;5046512;28;20296;-47
2021/08/06 07:41:45;;;;;;;8.20;3.57;;;18.40;99.90;;;;;;5046171;28;20236;-47
2021/08/06 07:44:12;;;;;;;4.77;3.10;;;18.50;99.90;;;;;;5046656;28;20643;-47
2021/08/06 07:46:39;;;;;;;4.93;2.70;;;18.60;99.90;;;;;;5046734;28;20673;-47
2021/08/06 07:49:05;;;;;;;4.10;2.80;;;18.70;99.90;;;;;;5044948;28;20290;-48
2021/08/06 07:51:32;;;;;;;4.20;3.00;;;18.60;99.90;;;;;;5046858;28;20723;-48
2021/08/06 07:54:00;;;;;;;7.33;3.03;;;18.60;99.90;;;;;;5045550;28;20263;-47
2021/08/06 07:56:26;;;;;;;4.47;2.90;;;18.70;99.90;;;;;;5046123;28;20336;-48
2021/08/06 07:58:53;;;;;;;3.33;2.83;;;18.70;99.90;;;;;;5045765;28;20205;-52
2021/08/06 08:01:20;;;;;;;4.13;3.10;;;19.10;99.90;;;;;;5046430;28;20202;-47
2021/08/06 08:03:47;;;;;;;6.50;3.30;;;19.20;99.90;;;;;;5045226;28;20258;-48
2021/08/06 08:06:14;;;;;;;4.97;3.20;;;19.30;99.90;;;;;;5045442;28;20301;-47
2021/08/06 08:08:43;;;;;;;5.73;3.93;;;19.50;99.90;;;;;;5046375;28;20234;-47
2021/08/06 08:11:10;;;;;;;5.93;3.63;;;19.30;99.90;;;;;;5046751;28;20617;-48
2021/08/06 08:13:37;;;;;;;4.90;3.50;;;19.50;99.90;;;;;;5045195;28;20305;-48
2021/08/06 08:16:04;;;;;;;6.30;3.47;;;19.50;99.90;;;;;;5046460;28;20366;-48
2021/08/06 08:18:31;;;;;;;4.77;3.20;;;19.60;99.90;;;;;;5045854;28;20273;-48
2021/08/06 08:20:58;;;;;;;3.80;2.77;;;19.40;99.90;;;;;;5046112;28;20239;-48
2021/08/06 08:23:25;;;;;;;4.93;2.90;;;19.30;99.90;;;;;;5045560;28;20271;-47
2021/08/06 08:25:55;;;;;;;4.27;3.03;;;19.40;99.90;;;;;;5045996;28;20282;-48
2021/08/06 08:28:23;;;;;;;4.30;2.37;;;19.50;99.90;;;;;;5044883;28;20230;-47
2021/08/06 08:30:51;;;;;;;3.03;2.40;;;19.50;99.90;;;;;;5046152;28;20242;-48
2021/08/06 08:33:19;;;;;;;4.00;2.87;;;19.80;99.90;;;;;;5045210;28;20243;-48
2021/08/06 08:35:46;;;;;;;4.20;2.40;;;20.00;99.90;;;;;;5045341;28;20257;-48
2021/08/06 08:38:14;;;;;;;3.77;2.80;;;19.90;99.90;;;;;;5045718;28;20310;-48
2021/08/06 08:40:41;;;;;;;4.73;2.93;;;20.10;99.90;;;;;;5045987;28;20698;-47
2021/08/06 08:43:09;;;;;;;3.63;2.80;;;20.00;99.90;;;;;;5044920;28;20525;-48
2021/08/06 08:45:40;;;;;;;3.10;2.20;;;20.10;99.90;;;;;;5044367;28;20690;-47
2021/08/06 08:48:12;;;;;;;4.57;2.17;;;20.10;99.90;;;;;;5046409;28;20235;-48
2021/08/06 08:50:40;;;;;;;3.80;2.23;;;19.90;99.90;;;;;;5045430;28;20269;-48
2021/08/06 08:53:09;;;;;;;6.03;2.27;;;20.00;99.90;;;;;;5044496;28;20331;-48
2021/08/06 08:55:39;;;;;;;7.77;2.23;;;19.90;99.90;;;;;;5045020;28;20294;-48
2021/08/06 08:58:07;;;;;;;3.37;2.50;;;19.80;99.90;;;;;;5046200;28;20235;-48
2021/08/06 09:00:35;;;;;;;4.30;2.37;;;19.80;99.90;;;;;;5047288;28;20664;-48
2021/08/06 09:03:02;;;;;;;4.73;3.07;;;19.70;99.90;;;;;;5049976;28;20204;-47
2021/08/06 09:05:29;;;;;;;5.13;3.10;;;19.70;99.90;;;;;;5047880;28;20299;-48
2021/08/06 09:07:56;;;;;;;5.77;3.33;;;19.50;99.90;;;;;;5049888;28;20687;-47
2021/08/06 09:10:28;;;;;;;4.17;2.97;;;19.50;99.90;;;;;;5048750;28;20235;-48
2021/08/06 09:12:59;;;;;;;5.17;2.97;;;19.40;99.90;;;;;;5050103;28;20286;-48
2021/08/06 09:15:46;;;;;;;3.13;2.80;;;19.40;99.90;;;;;;5049081;28;20309;-48
2021/08/06 09:18:26;;;;;;;2.87;2.53;;;19.30;99.90;;;;;;5049069;28;20236;-48
2021/08/06 09:20:57;;;;;;;3.23;2.77;;;19.10;99.90;;;;;;5049401;28;20318;-49
2021/08/06 09:23:45;;;;;;;3.83;2.90;;;19.80;99.90;;;;;;5048335;28;20288;-48
2021/08/06 09:26:28;;;;;;;1.77;1.37;;;20.00;99.90;;;;;;5049760;28;20464;-48
2021/08/06 09:29:03;;;;;;;2.70;1.80;;;20.40;99.90;;;;;;5048875;28;20293;-48
2021/08/06 09:31:33;;;;;;;6.23;1.60;;;20.50;99.90;;;;;;5048709;28;20223;-49
2021/08/06 09:34:17;;;;;;;1.80;1.70;;;20.60;99.90;;;;;;5048990;28;20212;-48
2021/08/06 09:36:57;;;;;;;2.30;1.57;;;20.80;99.90;;;;;;5049772;28;20250;-48
2021/08/06 09:39:25;;;;;;;5.67;1.50;;;20.80;99.90;;;;;;5047817;28;20239;-48
2021/08/06 09:42:14;;;;;;;1.60;1.37;;;20.60;99.90;;;;;;5049141;28;20642;-48
2021/08/06 09:44:42;;;;;;;1.90;1.53;;;20.50;99.90;;;;;;5047983;28;20249;-48
2021/08/06 09:47:21;;;;;;;2.53;1.30;;;20.70;99.90;;;;;;5049466;28;20238;-49
2021/08/06 09:49:52;;;;;;;6.20;1.30;;;20.60;99.90;;;;;;5048268;28;20241;-49
2021/08/06 09:52:30;;;;;;;2.47;1.67;;;20.50;99.90;;;;;;5049270;28;20301;-49
2021/08/06 09:55:31;;;;;;;1.30;1.20;;;20.40;99.90;;;;;;5048543;28;20211;-49
2021/08/06 09:58:00;;;;;;;2.23;1.20;;;20.50;99.90;;;;;;5048938;28;20335;-48
2021/08/06 10:00:32;;;;;;;3.90;1.20;;;20.60;99.90;;;;;;5048971;28;20600;-49
2021/08/06 10:02:59;;;;;;;3.57;1.57;;;20.90;99.90;;;;;;5048743;28;20619;-49
2021/08/06 10:05:31;;;;;;;1.37;1.20;;;21.10;99.90;;;;;;5046567;28;20273;-49
2021/08/06 10:08:01;;;;;;;2.30;1.10;;;20.80;99.90;;;;;;5048910;28;20241;-48
2021/08/06 10:10:32;;;;;;;2.40;1.33;;;20.70;99.90;;;;;;5048730;28;20196;-49
2021/08/06 10:13:00;;;;;;;1.47;1.30;;;20.50;99.90;;;;;;5048376;28;20227;-48
2021/08/06 10:15:27;;;;;;;2.73;1.40;;;20.70;99.90;;;;;;5047817;28;20276;-49
2021/08/06 10:17:56;;;;;;;1.33;1.23;;;20.90;99.90;;;;;;5048927;28;20649;-49
2021/08/06 10:20:25;;;;;;;2.57;1.60;;;20.80;99.90;;;;;;5040202;28;20550;-49
2021/08/06 10:22:54;;;;;;;1.30;1.00;;;20.70;99.90;;;;;;5049696;28;20231;-48
2021/08/06 10:25:22;;;;;;;2.87;1.27;;;20.70;99.90;;;;;;5047076;28;20306;-48
2021/08/06 10:27:50;;;;;;;2.03;1.50;;;20.80;99.90;;;;;;5049154;28;20231;-49
2021/08/06 10:30:22;;;;;;;2.87;1.23;;;21.00;99.90;;;;;;5048224;28;20203;-48
2021/08/06 10:33:27;;;;;;;2.30;1.23;;;21.20;14.20;;;;;;5048697;28;20268;-49
2021/08/06 10:36:02;;;;;;;1.50;1.27;;;21.20;1.00;;;;;;5048020;28;20241;-49
2021/08/06 10:38:43;;;;;;;1.60;1.10;;;21.00;41.00;;;;;;5048826;28;20640;-49
2021/08/06 10:41:15;;;;;;;3.63;1.53;;;20.80;4.00;;;;;;5048040;28;20238;-49
2021/08/06 10:43:46;;;;;;;2.27;1.40;;;21.10;51.20;;;;;;5048403;28;20204;-49
2021/08/06 10:46:14;;;;;;;2.13;1.70;;;20.90;53.10;;;;;;5048253;28;20302;-49
2021/08/06 10:48:44;;;;;;;2.27;1.60;;;20.70;22.40;;;;;;5048131;28;20239;-49
2021/08/06 10:51:16;;;;;;;2.23;1.40;;;20.70;61.20;;;;;;5047579;28;20239;-48
2021/08/06 10:54:07;;;;;;;3.87;1.50;;;20.60;96.60;;;;;;5047851;28;20285;-48
2021/08/06 10:56:37;;;;;;;2.30;1.23;;;20.60;11.40;;;;;;5047432;28;20239;-48
2021/08/06 10:59:12;;;;;;;1.97;1.20;;;20.60;1.00;;;;;;5047719;28;20276;-48
2021/08/06 11:01:45;;;;;;;1.20;1.10;;;20.70;11.80;;;;;;5048256;28;20204;-48
2021/08/06 11:04:15;;;;;;;4.83;1.33;;;20.90;21.00;;;;;;5047115;28;20215;-48
2021/08/06 11:06:47;;;;;;;1.80;1.20;;;21.20;1.00;;;;;;5046173;28;20215;-48
2021/08/06 11:09:25;;;;;;;2.80;1.20;;;21.50;1.00;;;;;;5047080;28;20622;-48
2021/08/06 11:12:06;;;;;;;2.67;1.10;;;21.50;1.00;;;;;;5047205;28;20287;-48
2021/08/06 11:14:35;;;;;;;1.40;1.20;;;21.30;1.00;;;;;;5047622;28;20627;-48
2021/08/06 11:17:17;;;;;;;1.33;1.20;;;21.30;1.00;;;;;;5046447;28;20666;-48
2021/08/06 11:19:48;;;;;;;1.27;1.17;;;20.90;1.00;;;;;;5046098;28;20203;-48
2021/08/06 11:22:17;;;;;;;8.50;1.53;;;20.90;1.00;;;;;;5047462;28;20235;-48
2021/08/06 11:24:46;;;;;;;1.47;1.00;;;20.50;68.80;;;;;;5046471;28;20214;-48
2021/08/06 11:27:15;;;;;;;1.90;1.53;;;20.30;99.90;;;;;;5046991;28;20227;-48
2021/08/06 11:29:43;;;;;;;2.03;1.40;;;20.30;99.90;;;;;;5047150;28;20203;-48
2021/08/06 11:32:13;;;;;;;1.77;1.40;;;20.70;99.90;;;;;;5047383;28;20232;-49
2021/08/06 11:34:53;;;;;;;2.10;1.30;;;21.30;99.90;;;;;;5045977;28;20670;-48
2021/08/06 11:37:22;;;;;;;1.33;1.23;;;21.40;99.90;;;;;;5048079;28;20216;-49
2021/08/06 11:40:07;;;;;;;2.67;1.20;;;21.70;1.00;;;;;;5045746;28;20285;-48
2021/08/06 11:42:35;;;;;;;1.97;1.50;;;21.50;1.00;;;;;;5046832;28;20728;-49
2021/08/06 11:45:04;;;;;;;4.30;1.23;;;21.60;1.00;;;;;;5047099;28;20687;-48
2021/08/06 11:47:47;;;;;;;2.40;1.10;;;21.30;1.00;;;;;;5045598;28;20250;-49
2021/08/06 11:50:33;;;;;;;1.50;1.00;;;21.30;1.00;;;;;;5046407;28;20505;-48
2021/08/06 11:53:00;;;;;;;1.27;0.90;;;21.40;1.00;;;;;;5046080;28;20212;-48
2021/08/06 11:55:30;;;;;;;0.97;0.80;;;21.30;1.00;;;;;;5046288;28;20291;-48
2021/08/06 11:57:58;;;;;;;1.57;0.90;;;21.40;1.00;;;;;;5047383;28;20261;-48
2021/08/06 12:00:33;;;;;;;1.83;1.10;;;21.30;1.00;;;;;;5046096;28;20664;-48
2021/08/06 12:03:15;;;;;;;1.30;1.20;;;21.60;1.00;;;;;;5046911;28;20218;-48
2021/08/06 12:05:45;;;;;;;1.40;1.30;;;21.80;4.70;;;;;;5044830;28;20215;-48
2021/08/06 12:08:22;;;;;;;1.87;1.20;;;22.10;1.00;;;;;;5046748;28;20612;-48
2021/08/06 12:11:05;;;;;;;2.43;1.37;;;22.20;1.00;;;;;;5046360;28;20665;-47
2021/08/06 12:13:37;;;;;;;1.47;1.33;;;21.50;1.00;;;;;;5045965;28;20325;-49
2021/08/06 12:16:07;;;;;;;2.10;1.30;;;21.30;1.00;;;;;;5046282;28;20207;-47
2021/08/06 12:18:36;;;;;;;2.97;1.20;;;21.70;1.00;;;;;;5045285;28;20327;-47
2021/08/06 12:21:06;;;;;;;2.97;1.03;;;22.00;1.00;;;;;;5046150;28;20961;-48
2021/08/06 12:23:34;;;;;;;1.10;1.00;;;21.70;1.00;;;;;;5044828;28;20299;-48
2021/08/06 12:26:01;;;;;;;3.50;1.10;;;21.80;1.00;;;;;;5046954;28;20251;-48
2021/08/06 12:28:29;;;;;;;1.13;0.97;;;22.20;1.00;;;;;;5045364;28;20240;-47
2021/08/06 12:31:16;;;;;;;1.30;1.20;;;22.10;1.00;;;;;;5046384;28;20196;-48
2021/08/06 12:33:45;;;;;;;2.00;1.23;;;21.80;1.00;;;;;;5045070;28;20683;-50
2021/08/06 12:36:16;;;;;;;1.30;1.20;;;22.10;1.00;;;;;;5045739;28;20253;-50
2021/08/06 12:38:43;;;;;;;1.30;0.97;;;21.90;1.00;;;;;;5046622;28;20330;-47
2021/08/06 12:41:23;;;;;;;2.63;0.93;;;22.00;1.00;;;;;;5045201;28;20253;-48
2021/08/06 12:44:11;;;;;;;2.47;1.20;;;22.10;1.00;;;;;;5046611;28;20711;-48
2021/08/06 12:46:38;;;;;;;2.23;1.13;;;22.50;1.00;;;;;;5046428;28;20599;-48
2021/08/06 12:49:10;;;;;;;1.77;1.10;;;22.20;1.00;;;;;;5045286;28;20239;-48
2021/08/06 12:51:39;;;;;;;1.67;1.00;;;22.50;1.00;;;;;;5046488;28;20366;-50
2021/08/06 12:54:55;;;;;;;1.10;1.00;;;22.80;99.90;;;;;;5044458;28;20244;-48
2021/08/06 12:57:38;;;;;;;2.43;1.07;;;22.70;65.90;;;;;;5038718;28;20252;-47
2021/08/06 13:00:30;;;;;;;2.27;1.30;;;22.30;1.00;;;;;;5045958;28;20230;-47
2021/08/06 13:03:00;;;;;;;1.83;0.90;;;22.10;99.90;;;;;;5045473;28;20204;-48
2021/08/06 13:05:28;;;;;;;1.33;1.10;;;22.20;1.00;;;;;;5043812;28;20298;-48